createdAt,value
2019-02-06T00:00:55.750Z,99.90
2019-02-06T00:03:26.802Z,99.90
2019-02-06T00:05:57.919Z,99.90
2019-02-06T00:08:28.915Z,99.90
2019-02-06T00:11:18.912Z,99.90
2019-02-06T00:13:49.720Z,99.90
2019-02-06T00:16:20.690Z,99.90
2019-02-06T00:18:51.640Z,99.90
2019-02-06T00:21:22.511Z,99.90
2019-02-06T00:23:53.371Z,99.90
2019-02-06T00:26:24.241Z,99.90
2019-02-06T00:28:55.451Z,99.90
2019-02-06T00:31:26.295Z,99.90
2019-02-06T00:33:57.055Z,99.90
2019-02-06T00:36:28.138Z,99.90
2019-02-06T00:38:59.343Z,99.90
2019-02-06T00:41:31.535Z,99.90
2019-02-06T00:44:02.444Z,99.90
2019-02-06T00:46:33.267Z,99.90
2019-02-06T00:49:04.381Z,99.90
2019-02-06T00:51:35.286Z,99.90
2019-02-06T00:54:06.303Z,99.90
2019-02-06T00:56:37.082Z,99.90
2019-02-06T00:59:07.911Z,99.90
2019-02-06T01:01:39.830Z,99.90
2019-02-06T01:04:10.923Z,99.90
2019-02-06T01:06:41.849Z,99.90
2019-02-06T01:09:12.884Z,99.90
2019-02-06T01:11:43.784Z,99.90
2019-02-06T01:14:14.720Z,99.90
2019-02-06T01:16:45.642Z,99.90
2019-02-06T01:19:16.507Z,99.90
2019-02-06T01:21:47.445Z,99.90
2019-02-06T01:24:18.360Z,99.90
2019-02-06T01:26:49.293Z,99.90
2019-02-06T01:29:20.063Z,99.90
2019-02-06T01:31:51.358Z,99.90
2019-02-06T01:34:22.228Z,99.90
2019-02-06T01:36:52.995Z,99.90
2019-02-06T01:39:23.848Z,99.90
2019-02-06T01:41:54.760Z,99.90
2019-02-06T01:44:25.965Z,99.90
2019-02-06T01:46:57.008Z,99.90
2019-02-06T01:49:27.889Z,99.90
2019-02-06T01:51:59.072Z,99.90
2019-02-06T01:54:30.896Z,99.90
2019-02-06T01:57:01.687Z,99.90
2019-02-06T01:59:32.983Z,99.90
2019-02-06T02:02:03.824Z,99.90
2019-02-06T02:04:34.813Z,99.90
2019-02-06T02:07:05.824Z,99.90
2019-02-06T02:09:36.852Z,99.90
2019-02-06T02:12:07.797Z,99.90
2019-02-06T02:14:38.754Z,99.90
2019-02-06T02:17:09.662Z,99.90
2019-02-06T02:19:40.650Z,99.90
2019-02-06T02:22:11.636Z,99.90
2019-02-06T02:24:42.611Z,99.90
2019-02-06T02:27:13.532Z,99.90
2019-02-06T02:29:44.491Z,99.90
2019-02-06T02:32:15.812Z,99.90
2019-02-06T02:34:47.072Z,99.90
2019-02-06T02:37:19.069Z,99.90
2019-02-06T02:39:50.489Z,99.90
2019-02-06T02:42:21.422Z,99.90
2019-02-06T02:44:52.311Z,99.90
2019-02-06T02:47:23.241Z,99.90
2019-02-06T02:49:54.372Z,99.90
2019-02-06T02:52:25.516Z,99.90
2019-02-06T02:54:56.551Z,99.90
2019-02-06T02:57:27.607Z,99.90
2019-02-06T02:59:58.657Z,99.90
2019-02-06T03:02:57.986Z,99.90
2019-02-06T03:05:31.372Z,99.90
2019-02-06T03:08:02.324Z,99.90
2019-02-06T03:10:33.330Z,99.90
2019-02-06T03:13:04.882Z,99.90
2019-02-06T03:15:35.696Z,99.90
2019-02-06T03:18:07.034Z,99.90
2019-02-06T03:20:37.997Z,99.90
2019-02-06T03:23:08.783Z,99.90
2019-02-06T03:25:39.883Z,99.90
2019-02-06T03:28:10.707Z,99.90
2019-02-06T03:30:41.629Z,99.90
2019-02-06T03:33:12.544Z,99.90
2019-02-06T03:35:43.733Z,99.90
2019-02-06T03:38:14.970Z,99.90
2019-02-06T03:40:46.071Z,99.90
2019-02-06T03:43:16.921Z,99.90
2019-02-06T03:45:48.244Z,99.90
2019-02-06T03:48:19.056Z,99.90
2019-02-06T03:50:50.250Z,99.90
2019-02-06T03:53:21.639Z,99.90
2019-02-06T03:55:52.734Z,99.90
2019-02-06T03:58:23.642Z,99.90
2019-02-06T04:00:54.503Z,99.90
2019-02-06T04:03:25.430Z,99.90
2019-02-06T04:05:56.383Z,99.90
2019-02-06T04:08:27.325Z,99.90
2019-02-06T04:10:58.060Z,99.90
2019-02-06T04:13:28.850Z,99.90
2019-02-06T04:15:59.635Z,99.90
2019-02-06T04:18:30.777Z,99.90
2019-02-06T04:21:02.337Z,99.90
2019-02-06T04:23:33.275Z,99.90
2019-02-06T04:26:04.245Z,99.90
2019-02-06T04:28:35.175Z,99.90
2019-02-06T04:31:06.303Z,99.90
2019-02-06T04:33:37.457Z,99.90
2019-02-06T04:36:08.384Z,99.90
2019-02-06T04:38:39.150Z,99.90
2019-02-06T04:41:09.974Z,99.90
2019-02-06T04:43:41.242Z,99.90
2019-02-06T04:46:12.442Z,99.90
2019-02-06T04:48:43.212Z,99.90
2019-02-06T04:51:14.031Z,99.90
2019-02-06T04:53:44.841Z,99.90
2019-02-06T04:56:15.708Z,99.90
2019-02-06T04:58:46.749Z,99.90
2019-02-06T05:01:17.939Z,99.90
2019-02-06T05:03:48.868Z,99.90
2019-02-06T05:06:20.047Z,99.90
2019-02-06T05:08:51.204Z,99.90
2019-02-06T05:11:22.328Z,99.90
2019-02-06T05:13:53.087Z,99.90
2019-02-06T05:16:27.799Z,99.90
2019-02-06T05:19:05.381Z,99.90
2019-02-06T05:21:36.347Z,99.90
2019-02-06T05:24:07.116Z,99.90
2019-02-06T05:26:38.304Z,99.90
2019-02-06T05:29:09.171Z,99.90
2019-02-06T05:31:40.334Z,99.90
2019-02-06T05:34:11.153Z,99.90
2019-02-06T05:36:41.895Z,99.90
2019-02-06T05:39:12.798Z,99.90
2019-02-06T05:41:43.532Z,99.90
2019-02-06T05:44:14.667Z,99.90
2019-02-06T05:46:45.489Z,99.90
2019-02-06T05:49:17.228Z,99.90
2019-02-06T05:51:48.283Z,99.90
2019-02-06T05:54:19.601Z,99.90
2019-02-06T05:56:50.517Z,99.90
2019-02-06T05:59:21.625Z,99.90
2019-02-06T06:01:52.908Z,99.90
2019-02-06T06:04:23.720Z,99.90
2019-02-06T06:06:54.443Z,99.90
2019-02-06T06:09:25.655Z,99.90
2019-02-06T06:11:56.469Z,99.90
2019-02-06T06:14:27.303Z,99.90
2019-02-06T06:16:58.179Z,99.90
2019-02-06T06:19:29.012Z,99.90
2019-02-06T06:22:01.293Z,99.90
2019-02-06T06:24:32.205Z,99.90
2019-02-06T06:27:03.044Z,99.90
2019-02-06T06:29:34.857Z,99.90
2019-02-06T06:32:05.782Z,99.90
2019-02-06T06:34:36.705Z,99.90
2019-02-06T06:37:07.635Z,99.90
2019-02-06T06:39:38.403Z,99.90
2019-02-06T06:42:09.345Z,99.90
2019-02-06T06:44:40.267Z,99.90
2019-02-06T06:47:11.112Z,99.90
2019-02-06T06:49:42.483Z,99.90
2019-02-06T06:52:13.598Z,99.90
2019-02-06T06:54:44.330Z,99.90
2019-02-06T06:57:15.167Z,99.90
2019-02-06T06:59:46.517Z,99.90
2019-02-06T07:02:17.295Z,99.90
2019-02-06T07:04:48.110Z,99.90
2019-02-06T07:07:19.020Z,99.90
2019-02-06T07:09:50.067Z,99.90
2019-02-06T07:12:20.823Z,99.90
2019-02-06T07:14:51.805Z,99.90
2019-02-06T07:17:22.560Z,99.90
2019-02-06T07:20:11.019Z,99.90
2019-02-06T07:22:45.303Z,99.90
2019-02-06T07:25:17.256Z,99.90
2019-02-06T07:27:48.435Z,99.90
2019-02-06T07:30:27.739Z,99.90
2019-02-06T07:32:58.940Z,99.90
2019-02-06T07:35:30.005Z,99.90
2019-02-06T07:38:01.273Z,99.90
2019-02-06T07:40:32.290Z,99.90
2019-02-06T07:43:03.523Z,99.90
2019-02-06T07:45:34.753Z,99.90
2019-02-06T07:48:05.644Z,99.90
2019-02-06T07:50:36.616Z,99.90
2019-02-06T07:53:07.787Z,99.60
2019-02-06T07:55:38.635Z,98.80
2019-02-06T07:58:09.693Z,98.30
2019-02-06T08:00:40.608Z,98.50
2019-02-06T08:03:11.748Z,98.50
2019-02-06T08:05:43.006Z,98.50
2019-02-06T08:08:13.837Z,99.00
2019-02-06T08:10:44.957Z,99.00
2019-02-06T08:13:15.827Z,98.90
2019-02-06T08:15:47.498Z,98.70
2019-02-06T08:18:18.709Z,98.90
2019-02-06T08:20:50.211Z,99.00
2019-02-06T08:23:20.992Z,98.80
2019-02-06T08:25:52.287Z,98.30
2019-02-06T08:28:23.102Z,98.40
2019-02-06T08:30:55.319Z,98.30
2019-02-06T08:33:26.205Z,98.50
2019-02-06T08:35:57.088Z,98.00
2019-02-06T08:38:27.988Z,97.60
2019-02-06T08:40:58.807Z,97.90
2019-02-06T08:43:29.958Z,98.00
2019-02-06T08:46:00.712Z,98.10
2019-02-06T08:48:32.101Z,97.60
2019-02-06T08:51:02.954Z,97.80
2019-02-06T08:53:33.771Z,97.30
2019-02-06T08:56:05.669Z,97.30
2019-02-06T08:58:36.904Z,97.60
2019-02-06T09:01:07.733Z,98.00
2019-02-06T09:03:38.568Z,96.90
2019-02-06T09:06:09.471Z,97.30
2019-02-06T09:08:40.308Z,96.40
2019-02-06T09:11:11.608Z,96.50
2019-02-06T09:13:42.539Z,96.30
2019-02-06T09:16:13.361Z,96.50
2019-02-06T09:18:44.278Z,95.70
2019-02-06T09:21:15.101Z,96.00
2019-02-06T09:23:46.047Z,95.70
2019-02-06T09:26:17.012Z,95.10
2019-02-06T09:28:47.790Z,94.40
2019-02-06T09:31:19.640Z,93.40
2019-02-06T09:33:50.399Z,92.20
2019-02-06T09:36:21.863Z,91.60
2019-02-06T09:38:52.948Z,91.50
2019-02-06T09:41:23.720Z,88.80
2019-02-06T09:43:54.554Z,87.50
2019-02-06T09:46:25.496Z,83.90
2019-02-06T09:48:56.342Z,81.50
2019-02-06T09:51:27.148Z,79.30
2019-02-06T09:53:58.278Z,76.90
2019-02-06T09:56:29.183Z,76.20
2019-02-06T09:59:00.034Z,77.20
2019-02-06T10:01:30.786Z,80.10
2019-02-06T10:04:01.876Z,83.50
2019-02-06T10:06:33.446Z,83.30
2019-02-06T10:09:07.401Z,85.50
2019-02-06T10:11:38.333Z,87.30
2019-02-06T10:14:09.206Z,89.40
2019-02-06T10:16:40.103Z,90.50
2019-02-06T10:19:11.427Z,89.00
2019-02-06T10:21:42.671Z,89.00
2019-02-06T10:24:13.523Z,88.90
2019-02-06T10:26:44.436Z,89.90
2019-02-06T10:29:15.308Z,90.30
2019-02-06T10:31:46.529Z,90.50
2019-02-06T10:34:17.646Z,90.30
2019-02-06T10:36:48.483Z,90.70
2019-02-06T10:39:19.297Z,90.90
2019-02-06T10:41:50.120Z,90.40
2019-02-06T10:44:21.432Z,91.40
2019-02-06T10:46:52.435Z,90.70
2019-02-06T10:49:23.213Z,90.80
2019-02-06T10:51:55.020Z,90.30
2019-02-06T10:54:26.076Z,90.50
2019-02-06T10:56:57.242Z,90.20
2019-02-06T10:59:28.508Z,90.20
2019-02-06T11:02:00.262Z,90.60
2019-02-06T11:04:31.041Z,90.40
2019-02-06T11:07:02.115Z,90.70
2019-02-06T11:09:32.908Z,90.70
2019-02-06T11:12:03.856Z,89.70
2019-02-06T11:14:34.666Z,88.60
2019-02-06T11:17:05.866Z,87.70
2019-02-06T11:19:36.648Z,87.80
2019-02-06T11:22:07.545Z,88.90
2019-02-06T11:24:38.492Z,88.90
2019-02-06T11:27:09.740Z,89.60
2019-02-06T11:29:40.727Z,88.50
2019-02-06T11:32:11.651Z,88.90
2019-02-06T11:34:42.512Z,87.70
2019-02-06T11:37:13.538Z,85.00
2019-02-06T11:39:45.139Z,85.00
2019-02-06T11:42:16.065Z,84.00
2019-02-06T11:44:46.923Z,84.50
2019-02-06T11:47:17.745Z,85.70
2019-02-06T11:49:50.645Z,86.00
2019-02-06T11:52:23.338Z,86.20
2019-02-06T11:54:54.115Z,85.80
2019-02-06T11:57:24.977Z,86.30
2019-02-06T11:59:55.797Z,86.70
2019-02-06T12:02:37.071Z,85.70
2019-02-06T12:04:59.730Z,84.30
2019-02-06T12:07:30.498Z,86.50
2019-02-06T12:10:09.307Z,86.00
2019-02-06T12:12:33.817Z,83.90
2019-02-06T12:15:07.460Z,85.30
2019-02-06T12:17:38.289Z,85.00
2019-02-06T12:20:12.438Z,84.70
2019-02-06T12:22:43.565Z,86.30
2019-02-06T12:25:15.413Z,85.00
2019-02-06T12:27:47.404Z,84.20
2019-02-06T12:30:24.483Z,84.00
2019-02-06T12:32:55.295Z,83.60
2019-02-06T12:35:26.349Z,84.30
2019-02-06T12:37:57.546Z,82.90
2019-02-06T12:40:28.604Z,82.80
2019-02-06T12:42:59.461Z,82.00
2019-02-06T12:45:31.297Z,83.40
2019-02-06T12:48:02.125Z,84.20
2019-02-06T12:50:33.231Z,81.80
2019-02-06T12:53:04.286Z,81.60
2019-02-06T12:55:36.622Z,80.50
2019-02-06T12:58:08.495Z,79.70
2019-02-06T13:00:40.854Z,77.40
2019-02-06T13:03:11.774Z,76.20
2019-02-06T13:05:43.007Z,77.80
2019-02-06T13:08:16.953Z,76.80
2019-02-06T13:10:46.573Z,76.00
2019-02-06T13:13:17.928Z,76.50
2019-02-06T13:15:48.897Z,76.10
2019-02-06T13:18:19.724Z,77.20
2019-02-06T13:20:51.554Z,76.90
2019-02-06T13:23:22.488Z,74.60
2019-02-06T13:25:53.684Z,75.20
2019-02-06T13:28:24.443Z,71.70
2019-02-06T13:30:55.384Z,72.70
2019-02-06T13:33:26.276Z,73.90
2019-02-06T13:35:57.110Z,74.00
2019-02-06T13:38:27.920Z,72.60
2019-02-06T13:40:58.894Z,72.90
2019-02-06T13:43:29.695Z,72.50
2019-02-06T13:46:00.631Z,72.20
2019-02-06T13:48:33.769Z,71.70
2019-02-06T13:51:16.465Z,71.20
2019-02-06T13:53:37.690Z,72.10
2019-02-06T13:56:08.702Z,73.30
2019-02-06T13:58:39.482Z,72.80
2019-02-06T14:01:10.423Z,72.40
2019-02-06T14:03:41.699Z,73.70
2019-02-06T14:06:12.925Z,72.50
2019-02-06T14:08:43.803Z,70.60
2019-02-06T14:11:14.650Z,69.30
2019-02-06T14:13:45.423Z,69.10
2019-02-06T14:16:17.367Z,68.80
2019-02-06T14:18:48.731Z,70.60
2019-02-06T14:21:19.691Z,69.20
2019-02-06T14:24:11.160Z,69.30
2019-02-06T14:26:54.579Z,69.50
2019-02-06T14:30:01.997Z,68.10
2019-02-06T14:33:07.501Z,71.60
2019-02-06T14:35:52.963Z,69.30
2019-02-06T14:39:05.204Z,70.00
2019-02-06T14:42:07.145Z,71.40
2019-02-06T14:44:48.056Z,74.20
2019-02-06T14:47:43.117Z,74.60
2019-02-06T14:50:36.597Z,75.80
2019-02-06T14:53:53.806Z,75.20
2019-02-06T14:57:18.309Z,74.50
2019-02-06T15:00:24.592Z,73.30
2019-02-06T15:03:26.944Z,72.80
2019-02-06T15:06:36.148Z,72.80
2019-02-06T15:09:48.403Z,75.70
2019-02-06T15:12:41.149Z,75.60
2019-02-06T15:15:22.501Z,73.50
2019-02-06T15:19:10.687Z,72.20
2019-02-06T15:22:02.266Z,71.20
2019-02-06T15:25:02.296Z,71.00
2019-02-06T15:28:16.508Z,72.40
2019-02-06T15:31:17.569Z,72.40
2019-02-06T15:34:38.541Z,73.50
2019-02-06T15:37:37.690Z,73.30
2019-02-06T15:40:54.840Z,72.60
2019-02-06T15:43:40.910Z,73.00
2019-02-06T15:46:40.864Z,74.90
2019-02-06T15:49:32.110Z,74.70
2019-02-06T15:52:22.474Z,74.90
2019-02-06T15:55:37.676Z,74.40
2019-02-06T15:58:53.955Z,74.50
2019-02-06T16:01:53.271Z,75.20
2019-02-06T16:05:57.547Z,76.80
2019-02-06T16:08:36.583Z,77.90
2019-02-06T16:11:44.103Z,79.10
2019-02-06T16:15:03.676Z,79.10
2019-02-06T16:18:05.154Z,79.60
2019-02-06T16:21:26.038Z,80.40
2019-02-06T16:24:40.730Z,81.40
2019-02-06T16:27:49.304Z,82.60
2019-02-06T16:31:00.024Z,83.80
2019-02-06T16:34:03.736Z,85.30
2019-02-06T16:37:15.150Z,86.20
2019-02-06T16:40:32.841Z,87.20
2019-02-06T16:43:39.367Z,88.80
2019-02-06T16:46:46.630Z,90.00
2019-02-06T16:49:35.300Z,90.70
2019-02-06T16:52:33.550Z,91.20
2019-02-06T16:55:35.098Z,91.70
2019-02-06T16:58:46.546Z,92.20
2019-02-06T17:01:45.987Z,92.50
2019-02-06T17:05:16.977Z,92.70
2019-02-06T17:08:35.220Z,93.20
2019-02-06T17:11:35.235Z,93.30
2019-02-06T17:14:35.950Z,93.50
2019-02-06T17:17:42.025Z,93.70
2019-02-06T17:20:50.655Z,94.10
2019-02-06T17:23:36.935Z,94.50
2019-02-06T17:26:42.475Z,94.80
2019-02-06T17:29:32.075Z,94.80
2019-02-06T17:32:41.419Z,94.90
2019-02-06T17:35:42.694Z,95.30
2019-02-06T17:38:42.234Z,95.80
2019-02-06T17:41:45.343Z,96.00
2019-02-06T17:44:52.025Z,96.40
2019-02-06T17:47:40.823Z,96.70
2019-02-06T17:50:58.943Z,97.20
2019-02-06T17:53:41.026Z,97.20
2019-02-06T17:56:11.823Z,97.50
2019-02-06T17:58:44.331Z,97.60
2019-02-06T18:01:52.006Z,97.20
2019-02-06T18:04:28.966Z,96.00
2019-02-06T18:07:00.508Z,94.80
2019-02-06T18:09:31.545Z,94.20
2019-02-06T18:12:02.444Z,93.80
2019-02-06T18:14:33.266Z,93.50
2019-02-06T18:17:05.804Z,93.80
2019-02-06T18:19:39.065Z,93.50
2019-02-06T18:22:10.306Z,93.70
2019-02-06T18:24:42.814Z,93.50
2019-02-06T18:27:13.562Z,93.80
2019-02-06T18:29:45.020Z,93.80
2019-02-06T18:32:16.028Z,94.00
2019-02-06T18:34:47.089Z,94.10
2019-02-06T18:37:18.367Z,94.20
2019-02-06T18:39:50.246Z,94.30
2019-02-06T18:42:21.515Z,94.60
2019-02-06T18:44:52.777Z,95.20
2019-02-06T18:47:23.723Z,95.00
2019-02-06T18:49:55.013Z,95.20
2019-02-06T18:52:26.299Z,95.30
2019-02-06T18:54:57.770Z,95.50
2019-02-06T18:57:29.502Z,95.70
2019-02-06T19:00:00.887Z,96.20
2019-02-06T19:02:32.584Z,96.30
2019-02-06T19:05:05.275Z,96.50
2019-02-06T19:07:36.998Z,96.50
2019-02-06T19:10:10.550Z,96.50
2019-02-06T19:12:47.802Z,96.50
2019-02-06T19:15:16.574Z,97.00
2019-02-06T19:17:48.251Z,97.00
2019-02-06T19:20:19.561Z,97.00
2019-02-06T19:22:50.860Z,97.10
2019-02-06T19:25:23.972Z,97.50
2019-02-06T19:27:56.314Z,97.70
2019-02-06T19:30:30.846Z,97.80
2019-02-06T19:33:02.952Z,97.80
2019-02-06T19:35:34.626Z,98.50
2019-02-06T19:38:06.695Z,98.50
2019-02-06T19:40:39.339Z,98.50
2019-02-06T19:43:11.742Z,98.40
2019-02-06T19:45:44.769Z,98.70
2019-02-06T19:48:20.260Z,99.20
2019-02-06T19:50:52.213Z,99.00
2019-02-06T19:53:25.586Z,99.20
2019-02-06T19:55:58.318Z,99.50
2019-02-06T19:58:30.290Z,99.60
2019-02-06T20:01:03.320Z,99.70
2019-02-06T20:03:35.718Z,99.80
2019-02-06T20:06:07.760Z,99.90
2019-02-06T20:08:39.593Z,99.90
2019-02-06T20:11:11.538Z,99.90
2019-02-06T20:13:43.058Z,99.90
2019-02-06T20:16:15.327Z,99.90
2019-02-06T20:18:47.318Z,99.90
2019-02-06T20:21:20.546Z,99.90
2019-02-06T20:23:52.407Z,99.90
2019-02-06T20:26:25.283Z,99.90
2019-02-06T20:28:57.311Z,99.90
2019-02-06T20:31:30.386Z,99.90
2019-02-06T20:34:04.047Z,99.90
2019-02-06T20:36:36.394Z,99.90
2019-02-06T20:39:10.524Z,99.90
2019-02-06T20:41:42.945Z,99.90
2019-02-06T20:44:15.754Z,99.90
2019-02-06T20:46:50.354Z,99.90
2019-02-06T20:49:23.021Z,99.90
2019-02-06T20:51:56.573Z,99.90
2019-02-06T20:54:28.065Z,99.90
2019-02-06T20:57:00.018Z,99.90
2019-02-06T20:59:33.171Z,99.90
2019-02-06T21:02:05.482Z,99.90
2019-02-06T21:04:37.454Z,99.90
2019-02-06T21:07:09.688Z,99.90
2019-02-06T21:09:41.900Z,99.90
2019-02-06T21:12:14.251Z,99.90
2019-02-06T21:14:45.643Z,99.90
2019-02-06T21:17:17.329Z,99.90
2019-02-06T21:19:48.767Z,99.90
2019-02-06T21:22:20.511Z,99.90
2019-02-06T21:24:51.740Z,99.90
2019-02-06T21:27:22.574Z,99.90
2019-02-06T21:29:53.725Z,99.90
2019-02-06T21:32:24.595Z,99.90
2019-02-06T21:34:55.699Z,99.90
2019-02-06T21:37:27.146Z,99.90
2019-02-06T21:39:58.026Z,99.90
2019-02-06T21:42:28.855Z,99.90
2019-02-06T21:44:59.762Z,99.90
2019-02-06T21:47:30.917Z,99.90
2019-02-06T21:50:01.847Z,99.90
2019-02-06T21:52:32.850Z,99.90
2019-02-06T21:55:04.748Z,99.90
2019-02-06T21:57:36.635Z,99.90
2019-02-06T22:00:12.378Z,99.90
2019-02-06T22:02:43.408Z,99.90
2019-02-06T22:05:14.503Z,99.90
2019-02-06T22:07:46.886Z,99.90
2019-02-06T22:10:18.362Z,99.90
2019-02-06T22:12:49.374Z,99.90
2019-02-06T22:15:22.730Z,99.90
2019-02-06T22:17:54.030Z,99.90
2019-02-06T22:20:26.211Z,99.90
2019-02-06T22:22:57.193Z,99.90
2019-02-06T22:25:28.096Z,99.90
2019-02-06T22:27:59.236Z,99.90
2019-02-06T22:30:30.131Z,99.90
2019-02-06T22:33:01.046Z,99.90
2019-02-06T22:35:31.922Z,99.90
2019-02-06T22:38:02.962Z,99.90
2019-02-06T22:40:33.817Z,99.90
2019-02-06T22:43:04.967Z,99.90
2019-02-06T22:45:35.796Z,99.90
2019-02-06T22:48:06.822Z,99.90
2019-02-06T22:50:38.068Z,99.90
2019-02-06T22:53:08.953Z,99.90
2019-02-06T22:55:40.274Z,99.90
2019-02-06T22:58:11.160Z,99.90
2019-02-06T23:01:16.275Z,99.90
2019-02-06T23:03:48.016Z,99.90
2019-02-06T23:06:19.305Z,99.90
2019-02-06T23:08:50.242Z,99.90
2019-02-06T23:11:21.070Z,99.90
2019-02-06T23:13:51.975Z,99.90
2019-02-06T23:16:23.007Z,99.90
2019-02-06T23:18:53.933Z,99.90
2019-02-06T23:21:25.434Z,99.90
2019-02-06T23:23:56.270Z,99.90
2019-02-06T23:26:27.565Z,99.90
2019-02-06T23:28:58.438Z,99.90
2019-02-06T23:31:29.434Z,99.90
2019-02-06T23:34:01.627Z,99.90
2019-02-06T23:36:33.533Z,99.90
2019-02-06T23:39:12.850Z,99.90
2019-02-06T23:41:43.963Z,99.90
2019-02-06T23:44:15.247Z,99.90
2019-02-06T23:46:46.279Z,99.90
2019-02-06T23:49:17.019Z,99.90
2019-02-06T23:51:48.165Z,99.90
2019-02-06T23:54:19.307Z,99.90
2019-02-06T23:56:50.411Z,99.90
2019-02-06T23:59:21.273Z,99.90
